Time,TemperatureF,DewpointF,PressureIn,WindDirection,WindDirectionDegrees,WindSpeedMPH,WindSpeedGustMPH,Humidity,HourlyPrecipIn,Conditions,Clouds,dailyrainin,SoftwareType,DateUTC
2013-01-10 00:00:00,40.0,-99.9,-100.00,SW,219,5.0,5.0,-999,-99.99,,,-99.99,,2013-01-10 07:00:00,
2013-01-10 00:52:00,40.0,-99.9,-100.00,SW,219,5.0,5.0,-999,-99.99,,,-99.99,,2013-01-10 07:52:00,
2013-01-10 01:00:00,38.0,-99.9,-100.00,NE,35,0.0,2.0,-999,-99.99,,,-99.99,,2013-01-10 08:00:00,
2013-01-10 01:22:00,39.0,-99.9,-100.00,NNE,26,4.0,4.0,-999,-99.99,,,-99.99,,2013-01-10 08:22:00,
2013-01-10 01:33:00,38.0,-99.9,-100.00,NE,35,0.0,2.0,-999,-99.99,,,-99.99,,2013-01-10 08:33:00,
2013-01-10 01:42:00,38.0,-99.9,-100.00,NE,35,0.0,2.0,-999,-99.99,,,-99.99,,2013-01-10 08:42:00,
2013-01-10 01:53:00,38.0,-99.9,-100.00,NE,35,0.0,2.0,-999,-99.99,,,-99.99,,2013-01-10 08:53:00,
2013-01-10 03:22:00,36.0,-99.9,-100.00,SW,214,5.0,5.0,-999,-99.99,,,-99.99,,2013-01-10 10:22:00,
2013-01-10 03:33:00,36.0,-99.9,-100.00,SW,214,5.0,5.0,-999,-99.99,,,-99.99,,2013-01-10 10:33:00,
2013-01-10 05:22:00,36.0,-99.9,-100.00,NNW,328,0.0,1.0,-999,-99.99,,,-99.99,,2013-01-10 12:22:00,
2013-01-10 05:33:00,36.0,-99.9,-100.00,NNW,328,0.0,1.0,-999,-99.99,,,-99.99,,2013-01-10 12:33:00,
2013-01-10 05:40:00,35.0,-99.9,-100.00,NW,325,1.0,1.0,-999,-99.99,,,-99.99,,2013-01-10 12:40:00,
2013-01-10 06:22:00,35.0,-99.9,-100.00,NW,325,1.0,1.0,-999,-99.99,,,-99.99,,2013-01-10 13:22:00,
2013-01-10 06:33:00,35.0,-99.9,-100.00,NW,325,1.0,1.0,-999,-99.99,,,-99.99,,2013-01-10 13:33:00,
2013-01-10 06:40:00,33.0,-99.9,-100.00,SSW,209,2.0,3.0,-999,-99.99,,,-99.99,,2013-01-10 13:40:00,
2013-01-10 07:03:00,34.0,-99.9,-100.00,NE,34,6.0,6.0,-999,-99.99,,,-99.99,,2013-01-10 14:03:00,
2013-01-10 07:12:00,34.0,-99.9,-100.00,NE,34,6.0,6.0,-999,-99.99,,,-99.99,,2013-01-10 14:12:00,
2013-01-10 07:23:00,33.0,-99.9,-100.00,SSW,209,2.0,3.0,-999,-99.99,,,-99.99,,2013-01-10 14:23:00,
2013-01-10 07:33:00,33.0,-99.9,-100.00,SSW,209,2.0,3.0,-999,-99.99,,,-99.99,,2013-01-10 14:33:00,
2013-01-10 09:20:00,43.0,-99.9,-100.00,NNW,331,0.0,5.0,-999,-99.99,,,-99.99,,2013-01-10 16:20:00,
2013-01-10 09:23:00,40.0,-99.9,-100.00,ENE,77,0.0,5.0,-999,-99.99,,,-99.99,,2013-01-10 16:23:00,
2013-01-10 09:33:00,41.0,-99.9,-100.00,SW,221,2.0,5.0,-999,-99.99,,,-99.99,,2013-01-10 16:33:00,
2013-01-10 09:43:00,41.0,-99.9,-100.00,SW,221,2.0,5.0,-999,-99.99,,,-99.99,,2013-01-10 16:43:00,
2013-01-10 10:03:00,43.0,-99.9,-100.00,NNW,331,0.0,5.0,-999,-99.99,,,-99.99,,2013-01-10 17:03:00,
2013-01-10 10:13:00,43.0,-99.9,-100.00,NNW,331,0.0,5.0,-999,-99.99,,,-99.99,,2013-01-10 17:13:00,
2013-01-10 10:40:00,53.0,-99.9,-100.00,North,11,0.0,2.0,-999,-99.99,,,-99.99,,2013-01-10 17:40:00,
2013-01-10 11:04:00,51.0,-99.9,-100.00,WSW,244,1.0,1.0,-999,-99.99,,,-99.99,,2013-01-10 18:04:00,
2013-01-10 11:13:00,51.0,-99.9,-100.00,WSW,244,1.0,1.0,-999,-99.99,,,-99.99,,2013-01-10 18:13:00,
2013-01-10 11:24:00,53.0,-99.9,-100.00,North,11,0.0,2.0,-999,-99.99,,,-99.99,,2013-01-10 18:24:00,
2013-01-10 11:33:00,53.0,-99.9,-100.00,North,11,0.0,2.0,-999,-99.99,,,-99.99,,2013-01-10 18:33:00,
2013-01-10 12:03:00,57.0,-99.9,-100.00,SW,221,1.0,2.0,-999,-99.99,,,-99.99,,2013-01-10 19:03:00,
2013-01-10 12:13:00,57.0,-99.9,-100.00,SW,221,1.0,2.0,-999,-99.99,,,-99.99,,2013-01-10 19:13:00,
2013-01-10 12:23:00,57.0,-99.9,-100.00,SW,221,1.0,2.0,-999,-99.99,,,-99.99,,2013-01-10 19:23:00,
2013-01-10 13:40:00,60.0,-99.9,-100.00,South,185,4.0,8.0,-999,-99.99,,,-99.99,,2013-01-10 20:40:00,
2013-01-10 14:23:00,60.0,-99.9,-100.00,South,185,4.0,8.0,-999,-99.99,,,-99.99,,2013-01-10 21:23:00,
2013-01-10 14:33:00,60.0,-99.9,-100.00,South,185,4.0,8.0,-999,-99.99,,,-99.99,,2013-01-10 21:33:00,
2013-01-10 16:03:00,64.0,-99.9,-100.00,SW,217,3.0,7.0,-999,-99.99,,,-99.99,,2013-01-10 23:03:00,
2013-01-10 17:10:00,60.0,-99.9,-100.00,South,175,2.0,3.0,-999,-99.99,,,-99.99,,2013-01-11 00:10:00,
2013-01-10 17:53:00,60.0,-99.9,-100.00,South,175,2.0,3.0,-999,-99.99,,,-99.99,,2013-01-11 00:53:00,
2013-01-10 18:03:00,60.0,-99.9,-100.00,South,175,2.0,3.0,-999,-99.99,,,-99.99,,2013-01-11 01:03:00,
2013-01-10 19:00:00,51.0,-99.9,-100.00,South,191,2.0,7.0,-999,-99.99,,,-99.99,,2013-01-11 02:00:00,
2013-01-10 19:54:00,51.0,-99.9,-100.00,South,191,2.0,7.0,-999,-99.99,,,-99.99,,2013-01-11 02:54:00,
2013-01-10 20:20:00,51.0,-99.9,-100.00,North,359,3.0,4.0,-999,-99.99,,,-99.99,,2013-01-11 03:20:00,
2013-01-10 20:34:00,50.0,-99.9,-100.00,NE,34,2.0,3.0,-999,-99.99,,,-99.99,,2013-01-11 03:34:00,
2013-01-10 20:43:00,50.0,-99.9,-100.00,NE,34,2.0,3.0,-999,-99.99,,,-99.99,,2013-01-11 03:43:00,
2013-01-10 21:03:00,51.0,-99.9,-100.00,North,359,3.0,4.0,-999,-99.99,,,-99.99,,2013-01-11 04:03:00,
2013-01-10 21:12:00,51.0,-99.9,-100.00,North,359,3.0,4.0,-999,-99.99,,,-99.99,,2013-01-11 04:12:00,
2013-01-10 21:30:00,47.0,-99.9,-100.00,NE,36,5.0,9.0,-999,-99.99,,,-99.99,,2013-01-11 04:30:00,
2013-01-10 22:23:00,47.0,-99.9,-100.00,NE,36,5.0,9.0,-999,-99.99,,,-99.99,,2013-01-11 05:23:00,
2013-01-10 23:53:00,44.0,-99.9,-100.00,SSW,198,3.0,5.0,-999,-99.99,,,-99.99,,2013-01-11 06:53:00,